createdAt,value
2017-12-05T00:00:16.840Z,16.73
2017-12-05T00:02:44.331Z,15.97
2017-12-05T00:05:11.798Z,16.77
2017-12-05T00:07:39.288Z,14.90
2017-12-05T00:10:07.448Z,16.07
2017-12-05T00:12:34.941Z,14.97
2017-12-05T00:15:02.403Z,15.73
2017-12-05T00:17:29.990Z,15.53
2017-12-05T00:19:57.485Z,17.30
2017-12-05T00:22:24.971Z,15.70
2017-12-05T00:24:52.475Z,16.07
2017-12-05T00:27:19.935Z,15.60
2017-12-05T00:29:47.422Z,16.20
2017-12-05T00:32:14.925Z,16.97
2017-12-05T00:34:42.399Z,15.57
2017-12-05T00:37:10.950Z,15.90
2017-12-05T00:39:38.430Z,16.40
2017-12-05T00:42:05.935Z,14.80
2017-12-05T00:44:33.417Z,15.93
2017-12-05T00:47:00.978Z,14.97
2017-12-05T00:49:29.448Z,14.00
2017-12-05T00:51:57.074Z,14.33
2017-12-05T00:54:24.543Z,13.20
2017-12-05T00:56:52.888Z,14.40
2017-12-05T00:59:20.386Z,14.60
2017-12-05T01:01:48.063Z,14.37
2017-12-05T01:04:15.563Z,15.20
2017-12-05T01:06:43.030Z,15.27
2017-12-05T01:09:11.275Z,13.30
2017-12-05T01:11:39.566Z,14.10
2017-12-05T01:14:07.086Z,14.60
2017-12-05T01:16:34.562Z,13.37
2017-12-05T01:19:02.149Z,15.03
2017-12-05T01:21:29.614Z,16.60
2017-12-05T01:23:57.848Z,15.07
2017-12-05T01:26:25.340Z,14.90
2017-12-05T01:28:52.828Z,14.13
2017-12-05T01:31:20.311Z,14.43
2017-12-05T01:33:47.811Z,15.50
2017-12-05T01:36:15.311Z,16.90
2017-12-05T01:38:42.806Z,16.00
2017-12-05T01:41:11.056Z,14.77
2017-12-05T01:43:38.548Z,14.33
2017-12-05T01:46:06.025Z,15.63
2017-12-05T01:48:33.603Z,15.93
2017-12-05T01:51:01.068Z,15.30
2017-12-05T01:53:28.541Z,16.93
2017-12-05T01:55:57.142Z,17.03
2017-12-05T01:58:24.720Z,16.80
2017-12-05T02:00:52.988Z,16.50
2017-12-05T02:03:21.255Z,15.17
2017-12-05T02:05:48.851Z,15.70
2017-12-05T02:08:16.319Z,17.40
2017-12-05T02:10:43.955Z,16.33
2017-12-05T02:13:11.459Z,16.10
2017-12-05T02:15:39.817Z,17.23
2017-12-05T02:18:07.277Z,18.20
2017-12-05T02:20:34.891Z,17.40
2017-12-05T02:23:03.324Z,17.40
2017-12-05T02:25:31.583Z,14.80
2017-12-05T02:27:59.071Z,16.43
2017-12-05T02:30:27.494Z,16.47
2017-12-05T02:32:54.965Z,16.73
2017-12-05T02:35:22.530Z,15.90
2017-12-05T02:37:50.775Z,16.17
2017-12-05T02:40:18.268Z,15.80
2017-12-05T02:42:45.760Z,17.77
2017-12-05T02:45:13.428Z,16.00
2017-12-05T02:47:40.931Z,17.77
2017-12-05T02:50:08.396Z,16.30
2017-12-05T02:52:36.824Z,15.50
2017-12-05T02:55:04.312Z,17.40
2017-12-05T02:57:31.804Z,17.50
2017-12-05T02:59:59.286Z,15.27
2017-12-05T03:02:26.748Z,17.23
2017-12-05T03:04:54.249Z,16.73
2017-12-05T03:07:21.754Z,15.57
2017-12-05T03:09:50.215Z,16.87
2017-12-05T03:12:17.870Z,16.80
2017-12-05T03:14:45.358Z,16.87
2017-12-05T03:17:12.831Z,16.30
2017-12-05T03:19:41.109Z,15.90
2017-12-05T03:22:09.358Z,14.70
2017-12-05T03:24:36.845Z,15.07
2017-12-05T03:27:04.355Z,16.10
2017-12-05T03:29:32.645Z,16.07
2017-12-05T03:32:00.914Z,16.70
2017-12-05T03:34:28.397Z,17.13
2017-12-05T03:36:55.881Z,16.17
2017-12-05T03:39:23.347Z,14.73
2017-12-05T03:41:50.815Z,15.87
2017-12-05T03:44:19.172Z,14.50
2017-12-05T03:46:47.439Z,16.17
2017-12-05T03:49:14.914Z,17.43
2017-12-05T03:51:42.420Z,14.63
2017-12-05T03:54:09.945Z,15.90
2017-12-05T03:56:38.214Z,15.20
2017-12-05T03:59:05.696Z,16.07
2017-12-05T04:01:33.175Z,15.00
2017-12-05T04:04:08.332Z,14.63
2017-12-05T04:06:36.816Z,15.47
2017-12-05T04:09:04.292Z,15.00
2017-12-05T04:11:32.852Z,14.60
2017-12-05T04:14:06.566Z,14.33
2017-12-05T04:16:34.057Z,14.70
2017-12-05T04:19:01.568Z,15.17
2017-12-05T04:21:29.036Z,15.30
2017-12-05T04:23:56.499Z,16.10
2017-12-05T04:26:24.769Z,15.17
2017-12-05T04:28:53.013Z,16.00
2017-12-05T04:31:20.509Z,16.03
2017-12-05T04:33:47.988Z,15.13
2017-12-05T04:36:15.546Z,15.83
2017-12-05T04:38:43.278Z,15.70
2017-12-05T04:41:10.803Z,16.13
2017-12-05T04:43:39.090Z,15.70
2017-12-05T04:46:07.332Z,14.30
2017-12-05T04:48:34.821Z,15.53
2017-12-05T04:51:02.289Z,15.03
2017-12-05T04:53:29.773Z,14.53
2017-12-05T04:55:57.248Z,15.10
2017-12-05T04:58:24.839Z,13.20
2017-12-05T05:00:52.325Z,14.70
2017-12-05T05:03:19.801Z,13.40
2017-12-05T05:05:47.277Z,13.93
2017-12-05T05:08:14.772Z,14.60
2017-12-05T05:10:42.256Z,14.43
2017-12-05T05:13:10.499Z,12.70
2017-12-05T05:15:37.985Z,15.10
2017-12-05T05:18:06.257Z,14.20
2017-12-05T05:20:33.749Z,14.50
2017-12-05T05:23:01.264Z,13.67
2017-12-05T05:25:29.517Z,13.17
2017-12-05T05:27:57.019Z,13.43
2017-12-05T05:30:25.474Z,13.10
2017-12-05T05:32:52.950Z,13.63
2017-12-05T05:35:21.225Z,12.87
2017-12-05T05:37:48.719Z,14.70
2017-12-05T05:40:16.961Z,13.20
2017-12-05T05:42:44.435Z,13.20
2017-12-05T05:45:11.927Z,13.37
2017-12-05T05:47:39.549Z,13.30
2017-12-05T05:50:07.070Z,13.63
2017-12-05T05:52:34.995Z,14.50
2017-12-05T05:55:02.494Z,13.27
2017-12-05T05:57:29.996Z,12.50
2017-12-05T05:59:58.984Z,13.43
2017-12-05T06:02:26.468Z,14.30
2017-12-05T06:04:53.968Z,11.90
2017-12-05T06:07:21.462Z,12.77
2017-12-05T06:09:48.964Z,12.80
2017-12-05T06:12:17.292Z,12.20
2017-12-05T06:14:45.577Z,12.90
2017-12-05T06:17:13.118Z,12.23
2017-12-05T06:19:40.612Z,12.37
2017-12-05T06:22:08.863Z,12.03
2017-12-05T06:24:37.105Z,11.30
2017-12-05T06:27:04.653Z,12.20
2017-12-05T06:29:32.128Z,10.90
2017-12-05T06:31:59.618Z,12.83
2017-12-05T06:34:27.123Z,12.10
2017-12-05T06:36:55.367Z,12.43
2017-12-05T06:39:22.915Z,12.43
2017-12-05T06:41:51.159Z,12.90
2017-12-05T06:44:18.734Z,12.07
2017-12-05T06:46:46.386Z,12.40
2017-12-05T06:49:13.895Z,10.83
2017-12-05T06:51:41.541Z,11.70
2017-12-05T06:54:09.080Z,14.67
2017-12-05T06:56:36.560Z,10.87
2017-12-05T06:59:04.105Z,11.67
2017-12-05T07:01:31.601Z,12.00
2017-12-05T07:03:59.226Z,11.30
2017-12-05T07:06:26.928Z,12.70
2017-12-05T07:08:54.454Z,11.57
2017-12-05T07:11:21.947Z,12.70
2017-12-05T07:13:49.452Z,13.63
2017-12-05T07:16:16.983Z,11.43
2017-12-05T07:18:45.254Z,12.40
2017-12-05T07:21:12.873Z,11.73
2017-12-05T07:23:41.145Z,12.50
2017-12-05T07:26:08.702Z,11.87
2017-12-05T07:28:36.975Z,10.80
2017-12-05T07:31:05.278Z,11.60
2017-12-05T07:33:34.762Z,12.03
2017-12-05T07:36:03.414Z,10.67
2017-12-05T07:38:30.947Z,10.10
2017-12-05T07:40:58.415Z,12.20
2017-12-05T07:43:26.691Z,11.80
2017-12-05T07:45:54.216Z,10.63
2017-12-05T07:48:21.729Z,10.97
2017-12-05T07:50:49.216Z,11.53
2017-12-05T07:53:16.713Z,12.33
2017-12-05T07:55:44.276Z,11.40
2017-12-05T07:58:11.749Z,10.80
2017-12-05T08:00:40.039Z,10.57
2017-12-05T08:03:07.560Z,10.67
2017-12-05T08:05:36.021Z,10.77
2017-12-05T08:08:03.499Z,11.90
2017-12-05T08:10:31.003Z,9.80
2017-12-05T08:12:58.580Z,11.13
2017-12-05T08:15:26.067Z,11.40
2017-12-05T08:17:53.562Z,10.77
2017-12-05T08:20:21.053Z,11.20
2017-12-05T08:22:48.531Z,11.70
2017-12-05T08:25:16.243Z,10.20
2017-12-05T08:27:44.484Z,9.87
2017-12-05T08:30:18.600Z,10.13
2017-12-05T08:32:46.210Z,10.70
2017-12-05T08:35:13.716Z,10.80
2017-12-05T08:37:42.197Z,11.70
2017-12-05T08:40:10.656Z,10.60
2017-12-05T08:42:38.198Z,11.07
2017-12-05T08:45:06.466Z,11.33
2017-12-05T08:47:34.771Z,11.60
2017-12-05T08:50:03.291Z,10.47
2017-12-05T08:55:09.802Z,11.57
2017-12-05T08:57:37.377Z,12.00
2017-12-05T09:03:40.552Z,10.27
2017-12-05T09:08:42.829Z,10.97
2017-12-05T09:11:10.338Z,10.03
2017-12-05T09:13:38.642Z,12.00
2017-12-05T09:16:06.917Z,13.20
2017-12-05T09:18:34.409Z,11.77
2017-12-05T09:21:02.005Z,11.50
2017-12-05T09:23:30.967Z,10.27
2017-12-05T09:25:58.455Z,11.07
2017-12-05T09:28:25.951Z,11.37
2017-12-05T09:30:53.477Z,10.77
2017-12-05T09:33:21.737Z,11.40
2017-12-05T09:35:49.297Z,10.60
2017-12-05T09:38:16.792Z,11.30
2017-12-05T09:40:44.527Z,10.63
2017-12-05T09:43:12.078Z,10.90
2017-12-05T09:45:39.565Z,12.47
2017-12-05T09:48:07.083Z,11.37
2017-12-05T09:50:34.610Z,11.67
2017-12-05T09:53:02.119Z,11.63
2017-12-05T09:55:29.625Z,10.93
2017-12-05T09:57:57.864Z,11.37
2017-12-05T10:00:25.405Z,12.13
2017-12-05T10:02:53.808Z,10.97
2017-12-05T10:05:21.319Z,13.30
2017-12-05T10:07:48.932Z,11.57
2017-12-05T10:10:16.593Z,12.77
2017-12-05T10:12:44.124Z,11.90
2017-12-05T10:15:11.611Z,12.10
2017-12-05T10:17:39.128Z,13.20
2017-12-05T10:20:06.745Z,12.60
2017-12-05T10:22:34.254Z,13.00
2017-12-05T10:25:01.740Z,12.93
2017-12-05T10:27:29.310Z,12.30
2017-12-05T10:29:56.944Z,13.23
2017-12-05T10:32:24.437Z,13.40
2017-12-05T10:34:52.690Z,13.87
2017-12-05T10:37:20.230Z,13.00
2017-12-05T10:39:47.726Z,13.80
2017-12-05T10:42:15.389Z,13.03
2017-12-05T10:44:43.007Z,12.23
2017-12-05T10:47:10.815Z,14.87
2017-12-05T10:49:38.448Z,13.20
2017-12-05T10:52:05.968Z,13.43
2017-12-05T10:54:33.481Z,12.27
2017-12-05T10:57:01.051Z,11.90
2017-12-05T10:59:28.529Z,13.23
2017-12-05T11:01:56.034Z,14.33
2017-12-05T11:04:23.573Z,13.00
2017-12-05T11:06:51.052Z,11.40
2017-12-05T11:09:18.555Z,11.60
2017-12-05T11:11:46.247Z,11.67
2017-12-05T11:14:13.720Z,11.23
2017-12-05T11:16:41.977Z,11.53
2017-12-05T11:19:11.452Z,12.33
2017-12-05T11:21:38.941Z,11.23
2017-12-05T11:24:06.418Z,13.03
2017-12-05T11:26:34.714Z,11.70
2017-12-05T11:29:02.236Z,12.10
2017-12-05T11:31:29.706Z,11.70
2017-12-05T11:33:57.201Z,12.60
2017-12-05T11:36:24.787Z,11.93
2017-12-05T11:38:52.323Z,15.40
2017-12-05T11:41:21.509Z,12.67
2017-12-05T11:43:49.168Z,12.97
2017-12-05T11:46:16.635Z,11.97
2017-12-05T11:48:44.239Z,11.57
2017-12-05T11:51:11.726Z,12.07
2017-12-05T11:53:39.225Z,10.40
2017-12-05T11:56:07.083Z,12.97
2017-12-05T11:58:34.781Z,13.20
2017-12-05T12:01:02.271Z,11.33
2017-12-05T12:03:29.811Z,12.60
2017-12-05T12:05:57.430Z,11.97
2017-12-05T12:08:24.927Z,11.23
2017-12-05T12:10:52.439Z,12.50
2017-12-05T12:13:19.946Z,11.53
2017-12-05T12:15:47.444Z,12.47
2017-12-05T12:18:14.962Z,11.27
2017-12-05T12:20:42.450Z,13.20
2017-12-05T12:23:10.091Z,12.70
2017-12-05T12:25:37.590Z,12.73
2017-12-05T12:28:05.107Z,11.60
2017-12-05T12:30:32.632Z,12.20
2017-12-05T12:33:00.890Z,10.40
2017-12-05T12:35:28.396Z,9.70
2017-12-05T12:37:55.895Z,10.80
2017-12-05T12:40:23.492Z,10.57
2017-12-05T12:42:50.973Z,10.47
2017-12-05T12:45:18.488Z,10.23
2017-12-05T12:47:46.118Z,10.73
2017-12-05T12:50:14.368Z,11.00
2017-12-05T12:52:41.948Z,10.87
2017-12-05T12:55:10.157Z,9.80
2017-12-05T12:57:37.680Z,11.20
2017-12-05T13:00:05.165Z,11.33
2017-12-05T13:02:32.654Z,11.33
2017-12-05T13:05:01.093Z,11.33
2017-12-05T13:07:28.587Z,9.57
2017-12-05T13:09:56.071Z,10.87
2017-12-05T13:12:23.706Z,10.50
2017-12-05T13:14:52.027Z,9.70
2017-12-05T13:17:19.514Z,10.00
2017-12-05T13:19:47.781Z,10.20
2017-12-05T13:22:15.500Z,11.27
2017-12-05T13:24:43.078Z,11.60
2017-12-05T13:27:11.312Z,11.13
2017-12-05T13:29:38.814Z,12.10
2017-12-05T13:32:06.332Z,11.60
2017-12-05T13:34:34.588Z,11.70
2017-12-05T13:37:02.095Z,11.00
2017-12-05T13:39:29.607Z,10.57
2017-12-05T13:41:57.890Z,11.50
2017-12-05T13:44:25.595Z,12.03
2017-12-05T13:46:53.836Z,10.77
2017-12-05T13:49:21.337Z,10.63
2017-12-05T13:51:48.843Z,11.60
2017-12-05T13:54:16.316Z,13.17
2017-12-05T13:56:44.002Z,13.83
2017-12-05T13:59:11.779Z,12.90
2017-12-05T14:01:39.251Z,10.50
2017-12-05T14:04:06.751Z,11.60
2017-12-05T14:06:34.253Z,10.90
2017-12-05T14:09:02.571Z,11.50
2017-12-05T14:11:30.867Z,10.03
2017-12-05T14:13:59.122Z,11.40
2017-12-05T14:16:26.654Z,10.73
2017-12-05T14:18:54.930Z,10.77
2017-12-05T14:21:22.423Z,11.77
2017-12-05T14:23:50.242Z,11.40
2017-12-05T14:26:18.578Z,11.03
2017-12-05T14:28:46.185Z,12.60
2017-12-05T14:31:13.681Z,11.70
2017-12-05T14:33:41.229Z,10.73
2017-12-05T14:36:08.752Z,11.00
2017-12-05T14:38:36.262Z,11.50
2017-12-05T14:41:03.808Z,11.60
2017-12-05T14:43:31.343Z,10.37
2017-12-05T14:45:58.848Z,10.83
2017-12-05T14:48:26.451Z,10.97
2017-12-05T14:50:53.979Z,11.37
2017-12-05T14:53:22.241Z,10.30
2017-12-05T14:55:49.804Z,10.90
2017-12-05T14:58:17.458Z,10.27
2017-12-05T15:00:45.727Z,11.80
2017-12-05T15:03:14.051Z,12.53
2017-12-05T15:05:42.331Z,10.93
2017-12-05T15:08:09.823Z,10.67
2017-12-05T15:10:37.318Z,10.93
2017-12-05T15:13:05.586Z,11.47
2017-12-05T15:15:33.076Z,11.87
2017-12-05T15:18:00.579Z,10.30
2017-12-05T15:20:28.833Z,11.43
2017-12-05T15:22:56.341Z,10.90
2017-12-05T15:25:23.960Z,10.80
2017-12-05T15:27:51.495Z,10.47
2017-12-05T15:30:19.019Z,12.80
2017-12-05T15:32:46.543Z,11.00
2017-12-05T15:35:15.747Z,10.37
2017-12-05T15:37:44.116Z,11.20
2017-12-05T15:40:11.590Z,9.70
2017-12-05T15:42:39.085Z,13.27
2017-12-05T15:45:06.639Z,11.10
2017-12-05T15:47:34.145Z,10.77
2017-12-05T15:50:01.840Z,10.03
2017-12-05T15:52:29.322Z,11.10
2017-12-05T15:54:56.836Z,11.90
2017-12-05T15:57:24.331Z,12.00
2017-12-05T15:59:52.581Z,13.00
2017-12-05T16:02:20.082Z,12.30
2017-12-05T16:04:47.633Z,12.73
2017-12-05T16:07:15.353Z,12.33
2017-12-05T16:09:42.858Z,11.40
2017-12-05T16:12:11.189Z,12.10
2017-12-05T16:14:38.694Z,12.43
2017-12-05T16:17:06.182Z,11.03
2017-12-05T16:19:33.858Z,11.13
2017-12-05T16:22:01.338Z,11.70
2017-12-05T16:24:28.829Z,11.50
2017-12-05T16:26:56.429Z,11.40
2017-12-05T16:29:24.101Z,11.40
2017-12-05T16:31:51.598Z,11.20
2017-12-05T16:34:19.454Z,10.03
2017-12-05T16:36:46.952Z,9.20
2017-12-05T16:39:15.202Z,10.27
2017-12-05T16:41:42.712Z,10.30
2017-12-05T16:44:10.279Z,10.80
2017-12-05T16:46:37.822Z,9.30
2017-12-05T16:49:05.301Z,11.23
2017-12-05T16:51:32.896Z,9.20
2017-12-05T16:54:00.405Z,10.70
2017-12-05T16:56:27.888Z,11.17
2017-12-05T16:58:55.386Z,10.47
2017-12-05T17:01:22.884Z,12.57
2017-12-05T17:03:50.553Z,11.03
2017-12-05T17:06:18.057Z,9.67
2017-12-05T17:08:45.564Z,9.80
2017-12-05T17:11:13.052Z,10.10
2017-12-05T17:13:40.567Z,9.97
2017-12-05T17:16:08.054Z,11.97
2017-12-05T17:18:35.531Z,12.40
2017-12-05T17:21:03.336Z,10.30
2017-12-05T17:23:31.922Z,12.03
2017-12-05T17:25:59.499Z,12.90
2017-12-05T17:28:26.987Z,12.20
2017-12-05T17:30:54.460Z,11.20
2017-12-05T17:33:22.190Z,11.73
2017-12-05T17:35:49.737Z,11.27
2017-12-05T17:38:17.238Z,11.60
2017-12-05T17:40:44.815Z,11.80
2017-12-05T17:43:12.294Z,12.80
2017-12-05T17:45:39.824Z,13.73
2017-12-05T17:48:07.306Z,11.93
2017-12-05T17:50:34.815Z,14.80
2017-12-05T17:53:03.325Z,12.30
2017-12-05T17:55:31.596Z,13.73
2017-12-05T17:57:59.060Z,12.77
2017-12-05T18:00:26.580Z,13.80
2017-12-05T18:02:54.884Z,13.20
2017-12-05T18:05:23.168Z,13.00
2017-12-05T18:07:50.695Z,14.83
2017-12-05T18:10:18.215Z,13.40
2017-12-05T18:12:45.812Z,14.70
2017-12-05T18:15:13.334Z,13.80
2017-12-05T18:17:41.601Z,13.57
2017-12-05T18:20:09.110Z,13.27
2017-12-05T18:22:36.620Z,14.10
2017-12-05T18:25:04.107Z,13.90
2017-12-05T18:27:31.581Z,12.30
2017-12-05T18:29:59.074Z,13.70
2017-12-05T18:32:26.648Z,12.33
2017-12-05T18:34:54.173Z,16.60
2017-12-05T18:37:21.672Z,14.60
2017-12-05T18:39:49.523Z,13.50
2017-12-05T18:42:17.237Z,13.73
2017-12-05T18:44:44.729Z,13.30
2017-12-05T18:47:12.262Z,14.13
2017-12-05T18:49:39.767Z,14.37
2017-12-05T18:52:07.266Z,13.13
2017-12-05T18:54:34.773Z,13.27
2017-12-05T18:57:02.260Z,15.07
2017-12-05T18:59:30.530Z,18.07
2017-12-05T19:01:58.086Z,14.00
2017-12-05T19:04:25.575Z,14.60
2017-12-05T19:06:53.373Z,15.40
2017-12-05T19:09:20.889Z,17.27
2017-12-05T19:11:48.590Z,13.80
2017-12-05T19:14:16.236Z,13.80
2017-12-05T19:16:43.797Z,16.40
2017-12-05T19:19:11.328Z,15.20
2017-12-05T19:21:38.861Z,15.17
2017-12-05T19:24:06.383Z,14.57
2017-12-05T19:26:33.927Z,15.57
2017-12-05T19:29:01.496Z,15.43
2017-12-05T19:31:28.992Z,15.83
2017-12-05T19:33:56.560Z,14.60
2017-12-05T19:36:24.800Z,13.67
2017-12-05T19:38:53.076Z,15.70
2017-12-05T19:41:21.356Z,14.97
2017-12-05T19:43:48.906Z,15.20
2017-12-05T19:46:16.435Z,15.67
2017-12-05T19:48:44.812Z,15.63
2017-12-05T19:51:12.298Z,15.50
2017-12-05T19:53:40.603Z,15.10
2017-12-05T19:56:08.137Z,16.80
2017-12-05T19:58:35.634Z,15.80
2017-12-05T20:01:03.328Z,15.60
2017-12-05T20:03:31.647Z,18.03
2017-12-05T20:05:59.172Z,15.40
2017-12-05T20:08:26.688Z,16.17
2017-12-05T20:10:54.175Z,15.37
2017-12-05T20:13:21.855Z,15.67
2017-12-05T20:15:49.406Z,15.03
2017-12-05T20:18:17.628Z,15.87
2017-12-05T20:20:45.216Z,16.50
2017-12-05T20:23:13.579Z,16.00
2017-12-05T20:25:41.182Z,16.33
2017-12-05T20:28:08.732Z,16.40
2017-12-05T20:30:36.231Z,15.03
2017-12-05T20:33:03.768Z,15.43
2017-12-05T20:35:32.115Z,15.07
2017-12-05T20:37:59.613Z,16.43
2017-12-05T20:40:27.270Z,15.87
2017-12-05T20:42:54.766Z,15.20
2017-12-05T20:45:22.486Z,15.80
2017-12-05T20:47:50.050Z,15.33
2017-12-05T20:50:17.541Z,16.20
2017-12-05T20:52:45.184Z,17.27
2017-12-05T20:55:12.675Z,15.60
2017-12-05T20:57:40.231Z,16.57
2017-12-05T21:00:08.505Z,15.80
2017-12-05T21:02:35.999Z,17.30
2017-12-05T21:05:04.259Z,16.23
2017-12-05T21:07:31.807Z,16.27
2017-12-05T21:09:59.329Z,16.60
2017-12-05T21:12:26.893Z,15.30
2017-12-05T21:14:55.259Z,16.60
2017-12-05T21:17:22.772Z,16.60
2017-12-05T21:19:50.256Z,17.00
2017-12-05T21:22:41.700Z,16.60
2017-12-05T21:25:09.142Z,17.00
2017-12-05T21:27:36.629Z,16.67
2017-12-05T21:30:04.135Z,15.80
2017-12-05T21:32:31.661Z,16.67
2017-12-05T21:34:59.944Z,15.63
2017-12-05T21:37:27.453Z,19.07
2017-12-05T21:39:55.796Z,16.50
2017-12-05T21:42:23.281Z,17.40
2017-12-05T21:44:51.695Z,16.80
2017-12-05T21:47:19.878Z,16.50
2017-12-05T21:49:47.403Z,16.67
2017-12-05T21:52:14.920Z,17.07
2017-12-05T21:54:42.604Z,16.90
2017-12-05T21:57:10.182Z,15.97
2017-12-05T21:59:37.673Z,16.43
2017-12-05T22:02:05.219Z,14.63
2017-12-05T22:04:32.712Z,16.67
2017-12-05T22:07:00.218Z,16.63
2017-12-05T22:09:27.721Z,15.40
2017-12-05T22:11:55.230Z,15.90
2017-12-05T22:14:22.769Z,15.00
2017-12-05T22:16:50.724Z,17.10
2017-12-05T22:19:19.064Z,17.40
2017-12-05T22:21:46.680Z,17.07
2017-12-05T22:24:14.178Z,16.10
2017-12-05T22:26:41.668Z,15.60
2017-12-05T22:29:09.214Z,16.80
2017-12-05T22:31:36.740Z,16.00
2017-12-05T22:34:05.004Z,16.60
2017-12-05T22:36:32.532Z,17.37
2017-12-05T22:39:00.039Z,17.00
2017-12-05T22:41:27.554Z,15.57
2017-12-05T22:43:56.451Z,15.23
2017-12-05T22:46:23.987Z,14.30
2017-12-05T22:48:51.589Z,15.17
2017-12-05T22:51:19.094Z,15.27
2017-12-05T22:53:46.570Z,16.03
2017-12-05T22:56:14.817Z,16.13
2017-12-05T22:58:43.080Z,14.70
2017-12-05T23:01:11.487Z,15.93
2017-12-05T23:03:38.970Z,15.07
2017-12-05T23:06:08.833Z,14.80
2017-12-05T23:08:36.500Z,14.37
2017-12-05T23:11:04.024Z,15.07
2017-12-05T23:13:31.512Z,14.70
2017-12-05T23:15:59.022Z,16.30
2017-12-05T23:18:26.551Z,15.73
2017-12-05T23:20:54.052Z,15.47
2017-12-05T23:23:21.539Z,13.93
2017-12-05T23:25:49.057Z,16.20
2017-12-05T23:28:16.674Z,15.23
2017-12-05T23:30:44.939Z,14.97
2017-12-05T23:33:12.515Z,16.03
2017-12-05T23:35:40.039Z,13.40
2017-12-05T23:38:07.572Z,15.47
2017-12-05T23:40:35.860Z,14.10
2017-12-05T23:43:04.102Z,14.90
2017-12-05T23:45:32.408Z,14.40
2017-12-05T23:47:59.903Z,13.73
2017-12-05T23:50:28.508Z,17.33
2017-12-05T23:52:56.328Z,12.73
2017-12-05T23:55:24.070Z,15.23
2017-12-05T23:57:52.340Z,15.40
